Aérodrome :
LOGIN :

S'inscrire | Disclaimer

   EN    FR    IT 

 










Légende :    VFR   VFR Marginal   IFR   IFR Intensif   IFR Très Intensif
Visi : 
Plafond : 
>= 8 km
>= 3000ft
5 à 8 km
1000 à 3000 ft
1500m à 5 km
500 à 1000 ft
800 à 1500m
200 à 500 ft
< 800m
< 200 ft
Symboles :   Orages  Brouillard  Fortes neiges  Fortes précipitations  Vent > 20 kt
SIGMETs :   Divers  Orages  Givrage  Turbulence  Onde Orograph.  Cendres Volcan.







- Altitude de l'aérodrome : 404 ft
- Code IATA : WRO


EPWR - Wroclaw

DERNIER METAR :
  • 191830Z 03003KT 9999 FEW037TCU BKN042 19/12 Q1018

METARs EXPIRÉS :
  • 191800Z 34005KT 9999 FEW040CB SCT046 19/12 Q1018
  • 191730Z 32005KT 270V350 9999 FEW025TCU BKN038 19/14 Q1018
  • 191700Z 29002KT 9999 FEW038 BKN044 20/15 Q1018
  • 191630Z 31002KT 9999 FEW040 20/15 Q1018
  • 191600Z 31005KT 9999 FEW042 21/14 Q1018

TAF TAF EPWR
Valide du 19 à 18h jusqu'au 20 à 18h UTC


191730Z 1918/2018 VRB02KT 9999 SCT040
PROB30
TEMPO 1918/2012 -SHRA BKN020CB
BECMG 2006/2009 32010KT
TEMPO 2012/2018 SHRA BKN020CB
PROB40
TEMPO 2014/2018 VRB15G30KT TSRA
Pas de NOTAMs connus pour ce terrain.



MET'MAP, la Météo Aéronautique d'un coup d'oeil ! - Copyright ORBIFLY Décembre 2007 - Disclaimer

ORBIFLY MET'MAP TEAM :

Programmation & Développement : Alexandra Zaïnal
Conception & Développement : Baudouin d'Aumeries
Co-Programmation & Développement : Marc-Olivier Méhu
Soutien technique & logistique : Manuel Goepfert

Contact : metmap@orbifly.com




SOURCES & CREDITS :

   NOAA